< < Back
Terminal Aerodrome Forecast


Current Version              Previous Versions:   1  2  3  4  5  6  7  8  9  

Terminal Aerodrome Forecast

894
FTUS44 KOHX 041700
TAFBNA
TAF
KBNA 041722Z 0418/0518 25009G18KT P6SM SCT090 SCT250
     FM050000 19005KT P6SM SCT250
     FM051400 20008G18KT P6SM SCT250=



Latest METAR

414
SAUS70 KWBC 042000 RRE
MTRBNA
METAR KBNA 041953Z 22007KT 10SM BKN070 29/11 A3022 RMK AO2 SLP228
T02890111 $


USA.gov is the U.S. government's official web portal to all federal, state and local government web resources and services.